createdAt,value
2019-05-29T00:03:25.396Z,0
2019-05-29T00:08:58.002Z,8.4
2019-05-29T00:14:30.520Z,7.2
2019-05-29T00:20:03.749Z,7.2
2019-05-29T00:25:36.976Z,8.4
2019-05-29T00:31:10.229Z,8.4
2019-05-29T00:36:43.463Z,9.6
2019-05-29T00:42:17.496Z,9.6
2019-05-29T00:47:49.992Z,7.2
2019-05-29T00:53:23.327Z,8.4
2019-05-29T00:58:56.576Z,8.4
2019-05-29T01:04:29.469Z,7.2
2019-05-29T01:10:01.894Z,0
2019-05-29T01:15:34.331Z,0
2019-05-29T01:21:06.773Z,0
2019-05-29T01:26:39.170Z,0
2019-05-29T01:32:11.598Z,0
2019-05-29T01:37:44.112Z,0
2019-05-29T01:43:17.484Z,0
2019-05-29T01:48:48.742Z,0
2019-05-29T01:54:21.657Z,0
2019-05-29T01:59:53.475Z,0
2019-05-29T02:05:25.905Z,0
2019-05-29T02:10:58.257Z,0
2019-05-29T02:16:30.577Z,0
2019-05-29T02:22:03.029Z,0
2019-05-29T02:27:35.727Z,0
2019-05-29T02:33:07.645Z,0
2019-05-29T02:38:39.945Z,0
2019-05-29T02:44:12.363Z,0
2019-05-29T02:49:44.681Z,0
2019-05-29T02:55:17.117Z,0
2019-05-29T03:00:49.446Z,0
2019-05-29T03:06:22.268Z,0
2019-05-29T03:11:54.177Z,0
2019-05-29T03:17:27.869Z,0
2019-05-29T03:22:58.834Z,0
2019-05-29T03:28:32.278Z,0
2019-05-29T03:34:03.571Z,0
2019-05-29T03:39:35.960Z,0
2019-05-29T03:45:08.311Z,0
2019-05-29T03:50:40.758Z,0
2019-05-29T03:56:13.155Z,0
2019-05-29T04:01:45.444Z,0
2019-05-29T04:07:17.920Z,0
2019-05-29T04:12:50.221Z,0
2019-05-29T04:18:22.622Z,0
2019-05-29T04:23:55.062Z,0
2019-05-29T04:29:28.001Z,0
2019-05-29T04:34:59.905Z,0
2019-05-29T04:40:32.791Z,0
2019-05-29T04:46:04.866Z,0
2019-05-29T04:51:37.532Z,0
2019-05-29T04:57:09.794Z,0
2019-05-29T05:02:42.229Z,0
2019-05-29T05:08:14.735Z,0
2019-05-29T05:13:47.243Z,0
2019-05-29T05:19:19.884Z,0
2019-05-29T05:24:52.405Z,0
2019-05-29T05:30:25.042Z,0
2019-05-29T05:35:57.726Z,0
2019-05-29T05:41:30.742Z,0
2019-05-29T05:47:03.106Z,0
2019-05-29T05:52:35.822Z,0
2019-05-29T05:58:08.557Z,0
2019-05-29T06:03:42.382Z,0
2019-05-29T06:09:14.216Z,0
2019-05-29T06:14:47.036Z,0
2019-05-29T06:20:19.955Z,0
2019-05-29T06:25:52.802Z,0
2019-05-29T06:31:27.245Z,0
2019-05-29T06:36:58.566Z,0
2019-05-29T06:42:31.461Z,0
2019-05-29T06:48:04.484Z,3.6
2019-05-29T06:53:37.781Z,4.8
2019-05-29T06:59:10.563Z,0
2019-05-29T07:04:44.613Z,0
2019-05-29T07:10:16.798Z,0
2019-05-29T07:15:49.940Z,0
2019-05-29T07:21:23.282Z,0
2019-05-29T07:26:56.921Z,9.6
2019-05-29T07:32:30.973Z,9.6
2019-05-29T07:38:04.907Z,8.4
2019-05-29T07:43:39.656Z,8.4
2019-05-29T07:49:12.400Z,9.6
2019-05-29T07:54:45.790Z,0
2019-05-29T08:00:18.900Z,5.9
2019-05-29T08:05:53.325Z,0
2019-05-29T08:11:25.397Z,0
2019-05-29T08:16:59.532Z,8.4
2019-05-29T08:22:34.832Z,9.6
2019-05-29T08:28:08.377Z,10.7
2019-05-29T08:33:42.886Z,10.7
2019-05-29T08:39:33.228Z,8.4
2019-05-29T08:44:52.141Z,7.2
2019-05-29T08:50:26.765Z,8.4
2019-05-29T08:56:01.738Z,10.7
2019-05-29T09:01:36.289Z,5.9
2019-05-29T09:07:10.823Z,9.6
2019-05-29T09:12:51.482Z,9.6
2019-05-29T09:18:21.468Z,13.2
2019-05-29T09:23:58.413Z,9.6
2019-05-29T09:29:28.695Z,7.2
2019-05-29T09:35:02.980Z,13.2
2019-05-29T09:40:37.325Z,10.7
2019-05-29T09:46:11.935Z,10.7
2019-05-29T09:51:45.981Z,10.7
2019-05-29T09:57:20.125Z,7.2
2019-05-29T10:02:54.247Z,4.8
2019-05-29T10:08:27.516Z,0
2019-05-29T10:14:02.851Z,11.9
2019-05-29T10:19:37.896Z,16.8
2019-05-29T10:25:12.858Z,14.4
2019-05-29T10:30:48.331Z,18
2019-05-29T10:36:23.502Z,15.6
2019-05-29T10:41:58.419Z,16.8
2019-05-29T10:47:33.042Z,18
2019-05-29T10:53:07.606Z,20.4
2019-05-29T10:58:49.341Z,15.6
2019-05-29T11:04:16.082Z,19.2
2019-05-29T11:09:52.075Z,19.2
2019-05-29T11:15:25.560Z,15.6
2019-05-29T11:21:00.227Z,19.2
2019-05-29T11:26:34.751Z,16.8
2019-05-29T11:32:09.310Z,19.2
2019-05-29T11:37:43.851Z,16.8
2019-05-29T11:43:18.606Z,14.4
2019-05-29T11:48:55.236Z,14.4
2019-05-29T11:54:27.499Z,13.2
2019-05-29T12:00:13.925Z,15.6
2019-05-29T12:05:37.960Z,23.9
2019-05-29T12:11:11.922Z,15.6
2019-05-29T12:16:46.868Z,11.9
2019-05-29T12:22:22.238Z,14.4
2019-05-29T12:27:58.989Z,16.8
2019-05-29T12:33:37.788Z,20.4
2019-05-29T12:39:13.349Z,22.8
2019-05-29T12:44:48.994Z,20.4
2019-05-29T12:50:24.443Z,15.6
2019-05-29T12:56:00.659Z,28.8
2019-05-29T13:01:35.290Z,31.2
2019-05-29T13:07:10.322Z,29.9
2019-05-29T13:12:45.095Z,27.6
2019-05-29T13:18:19.747Z,32.3
2019-05-29T13:23:54.168Z,27.6
2019-05-29T13:29:28.715Z,31.2
2019-05-29T13:35:04.209Z,25.1
2019-05-29T13:40:37.659Z,31.2
2019-05-29T13:46:12.151Z,27.6
2019-05-29T13:51:46.481Z,21.5
2019-05-29T13:57:20.883Z,27.6
2019-05-29T14:02:55.192Z,20.4
2019-05-29T14:08:29.511Z,10.7
2019-05-29T14:14:04.572Z,20.4
2019-05-29T14:19:38.392Z,19.2
2019-05-29T14:25:12.828Z,18
2019-05-29T14:30:47.111Z,26.4
2019-05-29T14:36:21.565Z,10.7
2019-05-29T14:41:56.072Z,19.2
2019-05-29T14:47:30.498Z,18
2019-05-29T14:53:05.108Z,15.6
2019-05-29T14:58:39.017Z,15.6
2019-05-29T15:04:14.639Z,18
2019-05-29T15:09:48.968Z,11.9
2019-05-29T15:15:23.539Z,9.6
2019-05-29T15:20:58.174Z,11.9
2019-05-29T15:26:32.827Z,11.9
2019-05-29T15:32:08.249Z,10.7
2019-05-29T15:37:41.185Z,8.4
2019-05-29T15:43:15.302Z,10.7
2019-05-29T15:48:49.308Z,19.2
2019-05-29T15:54:23.645Z,18
2019-05-29T15:59:57.945Z,15.6
2019-05-29T16:05:32.204Z,15.6
2019-05-29T16:11:06.304Z,15.6
2019-05-29T16:16:40.279Z,10.7
2019-05-29T16:22:14.479Z,9.6
2019-05-29T16:27:47.753Z,5.9
2019-05-29T16:33:21.112Z,0
2019-05-29T16:38:55.012Z,8.4
2019-05-29T16:44:29.964Z,9.6
2019-05-29T16:50:04.981Z,13.2
2019-05-29T16:55:52.907Z,5.9
2019-05-29T17:01:13.304Z,0
2019-05-29T17:06:46.298Z,0
2019-05-29T17:12:20.479Z,18
2019-05-29T17:17:54.371Z,22.8
2019-05-29T17:23:28.526Z,25.1
2019-05-29T17:29:02.585Z,20.4
2019-05-29T17:34:36.596Z,22.8
2019-05-29T17:40:10.625Z,19.2
2019-05-29T17:45:44.594Z,19.2
2019-05-29T17:51:19.704Z,21.5
2019-05-29T17:56:53.037Z,18
2019-05-29T18:02:26.574Z,18
2019-05-29T18:08:01.768Z,19.2
2019-05-29T18:13:34.563Z,18
2019-05-29T18:19:08.709Z,16.8
2019-05-29T18:24:42.767Z,14.4
2019-05-29T18:30:16.592Z,13.2
2019-05-29T18:35:50.449Z,11.9
2019-05-29T18:41:24.401Z,10.7
2019-05-29T18:46:57.397Z,4.8
2019-05-29T18:52:30.317Z,0
2019-05-29T18:58:03.141Z,0
2019-05-29T19:03:35.984Z,0
2019-05-29T19:09:08.996Z,14.4
2019-05-29T19:14:42.609Z,13.2
2019-05-29T19:20:16.210Z,13.2
2019-05-29T19:25:49.590Z,11.9
2019-05-29T19:31:23.053Z,9.6
2019-05-29T19:36:56.283Z,8.4
2019-05-29T19:42:30.219Z,9.6
2019-05-29T19:48:03.032Z,7.2
2019-05-29T19:53:35.802Z,0
2019-05-29T19:59:08.280Z,0
2019-05-29T20:04:40.931Z,0
2019-05-29T20:10:14.035Z,5.9
2019-05-29T20:15:46.561Z,0
2019-05-29T20:21:19.077Z,0
2019-05-29T20:26:51.879Z,4.8
2019-05-29T20:32:24.392Z,0
2019-05-29T20:37:57.149Z,5.9
2019-05-29T20:43:31.489Z,5.9
2019-05-29T20:49:02.780Z,0
2019-05-29T20:54:35.539Z,0
2019-05-29T21:00:07.543Z,0
2019-05-29T21:05:40.800Z,0
2019-05-29T21:11:12.454Z,0
2019-05-29T21:16:44.839Z,0
2019-05-29T21:22:17.301Z,0
2019-05-29T21:27:49.808Z,0
2019-05-29T21:33:21.890Z,0
2019-05-29T21:38:54.292Z,0
2019-05-29T21:44:26.587Z,0
2019-05-29T21:49:58.954Z,0
2019-05-29T21:55:31.278Z,0
2019-05-29T22:01:03.616Z,0
2019-05-29T22:06:35.923Z,0
2019-05-29T22:12:09.574Z,10.7
2019-05-29T22:17:41.967Z,11.9
2019-05-29T22:23:15.074Z,11.9
2019-05-29T22:28:48.218Z,11.9
2019-05-29T22:34:21.378Z,10.7
2019-05-29T22:39:55.456Z,13.2
2019-05-29T22:45:27.664Z,10.7
2019-05-29T22:51:00.547Z,7.2
2019-05-29T22:56:33.680Z,8.4
2019-05-29T23:02:05.957Z,5.9
2019-05-29T23:07:38.639Z,5.9
2019-05-29T23:13:11.650Z,5.9
2019-05-29T23:18:43.846Z,0
2019-05-29T23:24:16.026Z,0
2019-05-29T23:29:49.459Z,5.9
2019-05-29T23:35:20.570Z,0
2019-05-29T23:40:53.178Z,0
2019-05-29T23:46:25.571Z,7.2
2019-05-29T23:51:57.923Z,4.8
2019-05-29T23:57:30.131Z,0
